Time;durP1;ratioP1;P1;durP2;ratioP2;P2;SDS_P1;SDS_P2;PMS_P1;PMS_P2;Temp;Humidity;BMP_temperature;BMP_pressure;BME280_temperature;BME280_humidity;BME280_pressure;Samples;Min_cycle;Max_cycle;Signal;HPM_P1;HPM_P2
2022/04/17 00:02:00;;;;;;;8.27;2.22;;;;;;;;;;10236608;28;20100;-63
2022/04/17 00:06:59;;;;;;;11.57;2.00;;;;;;;;;;10247952;28;20556;-63
2022/04/17 00:11:58;;;;;;;10.02;2.58;;;;;;;;;;10238350;28;20061;-63
2022/04/17 00:16:58;;;;;;;8.20;2.10;;;;;;;;;;10249690;28;20076;-63
2022/04/17 00:21:56;;;;;;;4.53;2.05;;;;;;;;;;10249454;28;20072;-63
2022/04/17 00:26:54;;;;;;;5.20;2.45;;;;;;;;;;10244582;28;20076;-63
2022/04/17 00:31:53;;;;;;;4.10;1.95;;;;;;;;;;10237119;28;20067;-64
2022/04/17 00:36:53;;;;;;;3.75;2.13;;;;;;;;;;10234756;28;20064;-64
2022/04/17 00:41:51;;;;;;;6.20;2.58;;;;;;;;;;10235985;28;20080;-63
2022/04/17 00:46:49;;;;;;;2.67;1.95;;;;;;;;;;10235232;28;20076;-63
2022/04/17 00:51:48;;;;;;;6.20;2.17;;;;;;;;;;10233734;28;20091;-64
2022/04/17 00:56:48;;;;;;;10.02;2.30;;;;;;;;;;10234077;28;20103;-64
2022/04/17 01:01:47;;;;;;;6.63;2.50;;;;;;;;;;10233685;28;20093;-62
2022/04/17 01:06:45;;;;;;;8.38;2.42;;;;;;;;;;10242010;28;20076;-63
2022/04/17 01:11:44;;;;;;;7.97;2.30;;;;;;;;;;10236022;28;20403;-63
2022/04/17 01:16:44;;;;;;;10.35;2.22;;;;;;;;;;10235658;28;20057;-64
2022/04/17 01:21:46;;;;;;;3.22;2.10;;;;;;;;;;10234677;28;20069;-63
2022/04/17 01:26:58;;;;;;;11.18;2.88;;;;;;;;;;10232539;28;20077;-64
2022/04/17 01:31:57;;;;;;;6.03;2.33;;;;;;;;;;10233306;28;20076;-63
2022/04/17 01:36:57;;;;;;;6.50;2.05;;;;;;;;;;10233246;28;20095;-64
2022/04/17 01:41:56;;;;;;;7.43;2.35;;;;;;;;;;10232297;28;20080;-63
2022/04/17 01:46:54;;;;;;;4.43;2.30;;;;;;;;;;10232487;28;20458;-63
2022/04/17 01:51:53;;;;;;;8.85;2.72;;;;;;;;;;10232851;28;20081;-63
2022/04/17 01:56:53;;;;;;;6.40;2.67;;;;;;;;;;10233188;28;20092;-63
2022/04/17 02:01:52;;;;;;;9.93;3.20;;;;;;;;;;10231274;28;20095;-63
2022/04/17 02:06:50;;;;;;;26.75;3.72;;;;;;;;;;10233150;28;20494;-63
2022/04/17 02:11:49;;;;;;;12.00;4.57;;;;;;;;;;10233508;28;20085;-63
2022/04/17 02:16:49;;;;;;;14.38;3.33;;;;;;;;;;10233890;28;20061;-63
2022/04/17 02:21:47;;;;;;;11.30;3.20;;;;;;;;;;10239569;28;20069;-63
2022/04/17 02:26:45;;;;;;;22.60;4.55;;;;;;;;;;10234208;28;20104;-63
2022/04/17 02:31:43;;;;;;;19.63;4.32;;;;;;;;;;10235320;28;20072;-63
2022/04/17 02:36:43;;;;;;;22.45;4.20;;;;;;;;;;10231969;28;20072;-64
2022/04/17 02:41:41;;;;;;;11.18;5.13;;;;;;;;;;10230894;28;20077;-64
2022/04/17 02:51:56;;;;;;;4.97;3.30;;;;;;;;;;10231011;28;20125;-63
2022/04/17 02:56:54;;;;;;;13.57;4.78;;;;;;;;;;10244549;28;20061;-64
2022/04/17 03:07:10;;;;;;;7.13;4.05;;;;;;;;;;10246344;28;20064;-63
2022/04/17 03:12:08;;;;;;;10.98;4.53;;;;;;;;;;10235768;28;20069;-63
2022/04/17 03:17:06;;;;;;;11.43;4.10;;;;;;;;;;10236621;28;20081;-63
2022/04/17 03:22:05;;;;;;;9.55;4.57;;;;;;;;;;10237725;28;20072;-63
2022/04/17 03:27:04;;;;;;;6.47;5.18;;;;;;;;;;10241257;28;21301;-63
2022/04/17 03:32:03;;;;;;;8.73;5.65;;;;;;;;;;10255380;28;20084;-63
2022/04/17 03:37:02;;;;;;;10.93;6.43;;;;;;;;;;10251262;28;20064;-64
2022/04/17 03:42:00;;;;;;;7.43;5.65;;;;;;;;;;10237457;28;20085;-63
2022/04/17 03:47:00;;;;;;;8.57;5.85;;;;;;;;;;10239043;28;20073;-63
2022/04/17 03:51:58;;;;;;;12.48;7.05;;;;;;;;;;10236991;28;20045;-64
2022/04/17 03:56:57;;;;;;;7.50;6.07;;;;;;;;;;10236854;28;20057;-64
2022/04/17 04:01:55;;;;;;;8.20;5.88;;;;;;;;;;10238225;28;20076;-64
2022/04/17 04:06:55;;;;;;;8.80;6.30;;;;;;;;;;10235270;28;20069;-63
2022/04/17 04:11:53;;;;;;;6.22;5.63;;;;;;;;;;10236457;28;20533;-64
2022/04/17 04:16:53;;;;;;;8.02;7.32;;;;;;;;;;10236075;28;20640;-64
2022/04/17 04:21:51;;;;;;;8.23;7.43;;;;;;;;;;10247453;28;20435;-64
2022/04/17 04:28:33;;;;;;;8.00;7.30;;;;;;;;;;10239972;28;20076;-65
2022/04/17 04:32:09;;;;;;;7.70;6.18;;;;;;;;;;10235089;28;20060;-64
2022/04/17 04:37:07;;;;;;;8.70;6.95;;;;;;;;;;10235303;28;20068;-64
2022/04/17 04:42:08;;;;;;;10.00;7.03;;;;;;;;;;10250080;28;20104;-64
2022/04/17 04:47:06;;;;;;;7.70;6.78;;;;;;;;;;10241110;28;20073;-64
2022/04/17 04:52:04;;;;;;;7.18;6.57;;;;;;;;;;10238936;28;20084;-64
2022/04/17 04:57:03;;;;;;;10.57;7.13;;;;;;;;;;10234792;28;20061;-64
2022/04/17 05:02:03;;;;;;;8.23;7.07;;;;;;;;;;10233019;28;20072;-65
2022/04/17 05:07:01;;;;;;;9.23;7.88;;;;;;;;;;10241038;28;20120;-65
2022/04/17 05:11:59;;;;;;;7.40;6.53;;;;;;;;;;10233442;28;20077;-64
2022/04/17 05:16:57;;;;;;;9.07;7.65;;;;;;;;;;10234996;28;20166;-64
2022/04/17 05:22:02;;;;;;;10.20;8.00;;;;;;;;;;10232833;28;20065;-65
2022/04/17 05:27:00;;;;;;;9.77;7.65;;;;;;;;;;10233228;28;20077;-65
2022/04/17 05:31:59;;;;;;;7.32;6.40;;;;;;;;;;10231831;28;20151;-65
2022/04/17 05:36:58;;;;;;;9.35;6.85;;;;;;;;;;10249854;28;20094;-64
2022/04/17 05:41:58;;;;;;;7.78;7.00;;;;;;;;;;10252605;28;20073;-65
2022/04/17 05:46:59;;;;;;;9.18;8.27;;;;;;;;;;10246075;28;20510;-65
2022/04/17 05:51:58;;;;;;;8.43;7.55;;;;;;;;;;10236406;28;20068;-65
2022/04/17 05:56:57;;;;;;;12.18;8.23;;;;;;;;;;10250922;28;20057;-65
2022/04/17 06:01:55;;;;;;;12.80;11.32;;;;;;;;;;10233778;28;20072;-65
2022/04/17 06:06:54;;;;;;;7.75;6.95;;;;;;;;;;10253916;28;20088;-64
2022/04/17 06:11:53;;;;;;;8.45;7.65;;;;;;;;;;10238388;28;20077;-65
2022/04/17 06:16:51;;;;;;;12.10;11.00;;;;;;;;;;10246207;28;20092;-65
2022/04/17 06:21:50;;;;;;;9.07;8.18;;;;;;;;;;10251427;28;20079;-65
2022/04/17 06:26:49;;;;;;;12.20;9.52;;;;;;;;;;10235008;28;20069;-64
2022/04/17 06:31:48;;;;;;;8.65;7.57;;;;;;;;;;10229551;28;20065;-64
2022/04/17 06:36:46;;;;;;;8.55;7.63;;;;;;;;;;10227982;28;20691;-64
2022/04/17 06:41:45;;;;;;;10.68;7.38;;;;;;;;;;10223267;28;20580;-65
2022/04/17 06:46:43;;;;;;;9.10;6.82;;;;;;;;;;10223347;28;20076;-64
2022/04/17 06:51:43;;;;;;;9.82;6.80;;;;;;;;;;10233700;28;20065;-63
2022/04/17 06:56:41;;;;;;;9.85;8.82;;;;;;;;;;10237221;28;20113;-65
2022/04/17 07:01:39;;;;;;;10.52;8.63;;;;;;;;;;10237514;28;20065;-64
2022/04/17 07:06:38;;;;;;;8.68;7.85;;;;;;;;;;10237688;28;20419;-63
2022/04/17 07:11:37;;;;;;;10.10;9.02;;;;;;;;;;10237980;28;20068;-64
2022/04/17 07:16:35;;;;;;;10.60;9.43;;;;;;;;;;10240710;28;20430;-64
2022/04/17 07:21:34;;;;;;;13.32;11.50;;;;;;;;;;10236859;28;20500;-64
2022/04/17 07:26:32;;;;;;;9.90;8.52;;;;;;;;;;10237082;28;20068;-65
2022/04/17 07:31:32;;;;;;;10.13;8.88;;;;;;;;;;10236986;28;20061;-64
2022/04/17 07:36:30;;;;;;;9.38;8.43;;;;;;;;;;10236871;28;20110;-64
2022/04/17 07:41:28;;;;;;;19.13;7.40;;;;;;;;;;10236664;28;20065;-63
2022/04/17 07:46:27;;;;;;;8.95;7.80;;;;;;;;;;10235505;28;20075;-63
2022/04/17 07:51:26;;;;;;;7.53;6.82;;;;;;;;;;10232254;28;20067;-63
2022/04/17 07:56:25;;;;;;;8.45;7.55;;;;;;;;;;10232969;28;20095;-64
2022/04/17 08:01:23;;;;;;;10.88;8.40;;;;;;;;;;10232596;28;20601;-64
2022/04/17 08:06:22;;;;;;;9.30;6.70;;;;;;;;;;10235611;28;20075;-65
2022/04/17 08:11:23;;;;;;;7.30;6.50;;;;;;;;;;10236257;28;20131;-65
2022/04/17 08:16:22;;;;;;;9.68;8.00;;;;;;;;;;10236815;28;20435;-66
2022/04/17 08:21:20;;;;;;;6.03;5.03;;;;;;;;;;10242940;28;20064;-65
2022/04/17 08:26:18;;;;;;;10.05;7.90;;;;;;;;;;10235868;28;20076;-64
2022/04/17 08:31:18;;;;;;;6.57;5.85;;;;;;;;;;10236609;28;20061;-65
2022/04/17 08:36:16;;;;;;;11.63;9.82;;;;;;;;;;10235687;28;20053;-65
2022/04/17 08:41:15;;;;;;;28.27;20.02;;;;;;;;;;10235895;28;20069;-66
2022/04/17 08:46:14;;;;;;;8.95;7.53;;;;;;;;;;10234214;28;20083;-64
2022/04/17 08:51:13;;;;;;;9.98;8.65;;;;;;;;;;10232516;28;20037;-64
2022/04/17 08:56:12;;;;;;;16.45;10.52;;;;;;;;;;10234146;28;20076;-64
2022/04/17 09:01:12;;;;;;;12.85;7.75;;;;;;;;;;10233533;28;20095;-65
2022/04/17 09:06:11;;;;;;;6.95;5.68;;;;;;;;;;10233004;28;20471;-65
2022/04/17 09:11:15;;;;;;;11.15;5.85;;;;;;;;;;10233809;28;20148;-64
2022/04/17 09:16:13;;;;;;;11.10;8.48;;;;;;;;;;10232885;28;20061;-64
2022/04/17 09:21:27;;;;;;;8.80;7.40;;;;;;;;;;10232471;28;20076;-65
2022/04/17 09:26:28;;;;;;;8.32;5.82;;;;;;;;;;10238652;28;20064;-65
2022/04/17 09:31:26;;;;;;;9.30;5.68;;;;;;;;;;10235385;28;20076;-66
2022/04/17 09:36:29;;;;;;;7.47;4.18;;;;;;;;;;10233789;28;20470;-65
2022/04/17 09:41:32;;;;;;;6.75;5.72;;;;;;;;;;10247378;28;20068;-64
2022/04/17 09:46:31;;;;;;;8.68;6.95;;;;;;;;;;10265475;28;20071;-65
2022/04/17 09:51:31;;;;;;;6.45;5.75;;;;;;;;;;10267131;28;20164;-65
2022/04/17 09:56:32;;;;;;;6.75;6.05;;;;;;;;;;10247388;28;20076;-66
2022/04/17 10:01:31;;;;;;;8.23;7.40;;;;;;;;;;10248742;28;20075;-65
2022/04/17 10:06:29;;;;;;;5.05;4.53;;;;;;;;;;10244577;28;20084;-65
2022/04/17 10:11:29;;;;;;;5.78;4.72;;;;;;;;;;10234378;28;20061;-66
2022/04/17 10:16:32;;;;;;;3.97;3.58;;;;;;;;;;10234412;28;20084;-65
2022/04/17 10:21:30;;;;;;;7.13;6.00;;;;;;;;;;10236767;28;20065;-66
2022/04/17 10:26:29;;;;;;;4.63;4.13;;;;;;;;;;10236768;28;20068;-65
2022/04/17 10:31:37;;;;;;;8.93;6.88;;;;;;;;;;10238959;28;20073;-65
2022/04/17 10:36:42;;;;;;;10.02;7.68;;;;;;;;;;10240586;28;20080;-64
2022/04/17 10:41:41;;;;;;;6.60;5.53;;;;;;;;;;10252101;28;20088;-65
2022/04/17 10:46:48;;;;;;;10.45;6.72;;;;;;;;;;10245651;28;20072;-65
2022/04/17 10:51:53;;;;;;;13.30;8.77;;;;;;;;;;10251521;28;20479;-66
2022/04/17 10:57:00;;;;;;;7.28;5.95;;;;;;;;;;10260307;28;20477;-65
2022/04/17 11:02:04;;;;;;;8.52;7.22;;;;;;;;;;10232249;28;20052;-65
2022/04/17 11:07:22;;;;;;;8.47;7.17;;;;;;;;;;10271652;28;20083;-65
2022/04/17 11:12:23;;;;;;;9.80;7.15;;;;;;;;;;10269482;28;20064;-65
2022/04/17 11:17:24;;;;;;;6.70;5.60;;;;;;;;;;10244002;28;20130;-65
2022/04/17 11:22:26;;;;;;;9.13;8.20;;;;;;;;;;10252674;28;20224;-65
2022/04/17 11:27:35;;;;;;;8.15;6.47;;;;;;;;;;10262716;28;20067;-66
2022/04/17 11:32:49;;;;;;;6.43;5.75;;;;;;;;;;10253184;28;20103;-65
2022/04/17 11:37:54;;;;;;;7.93;5.78;;;;;;;;;;10263942;28;20139;-65
2022/04/17 11:42:53;;;;;;;9.15;7.25;;;;;;;;;;10259807;28;20344;-66
2022/04/17 11:47:53;;;;;;;7.68;5.80;;;;;;;;;;10258951;28;20064;-66
2022/04/17 11:52:52;;;;;;;9.23;7.15;;;;;;;;;;10261292;28;20083;-66
2022/04/17 11:57:50;;;;;;;6.95;4.20;;;;;;;;;;10254012;28;20071;-66
2022/04/17 12:02:54;;;;;;;6.00;4.55;;;;;;;;;;10250925;28;20087;-66
2022/04/17 12:07:58;;;;;;;7.88;6.18;;;;;;;;;;10263167;28;20064;-66
2022/04/17 12:12:56;;;;;;;9.43;5.88;;;;;;;;;;10263820;28;20835;-66
2022/04/17 12:17:58;;;;;;;12.90;7.88;;;;;;;;;;10259070;28;20131;-66
2022/04/17 12:22:58;;;;;;;15.25;11.25;;;;;;;;;;10275525;28;20072;-66
2022/04/17 12:27:56;;;;;;;7.68;6.68;;;;;;;;;;10270192;28;20064;-65
2022/04/17 12:32:59;;;;;;;6.53;5.18;;;;;;;;;;10273131;28;20068;-66
2022/04/17 12:38:06;;;;;;;6.32;5.72;;;;;;;;;;10260395;28;20513;-65
2022/04/17 12:43:14;;;;;;;13.13;10.57;;;;;;;;;;10272406;28;20088;-66
2022/04/17 12:48:12;;;;;;;6.55;5.80;;;;;;;;;;10270688;28;20064;-66
2022/04/17 12:53:13;;;;;;;10.10;8.05;;;;;;;;;;10274900;28;20075;-65
2022/04/17 12:58:11;;;;;;;12.02;9.77;;;;;;;;;;10244038;28;20072;-66
2022/04/17 13:03:10;;;;;;;27.30;18.23;;;;;;;;;;10251834;28;20087;-65
2022/04/17 13:08:10;;;;;;;12.00;8.43;;;;;;;;;;10252422;28;20072;-65
2022/04/17 13:13:13;;;;;;;7.93;5.53;;;;;;;;;;10252405;28;20063;-65
2022/04/17 13:18:12;;;;;;;8.30;6.68;;;;;;;;;;10255940;28;20060;-65
2022/04/17 13:23:10;;;;;;;10.07;8.93;;;;;;;;;;10255571;28;20082;-66
2022/04/17 13:28:09;;;;;;;11.65;8.45;;;;;;;;;;10269313;28;20069;-65
2022/04/17 13:33:08;;;;;;;11.18;9.57;;;;;;;;;;10256419;28;20554;-65
2022/04/17 13:38:13;;;;;;;7.68;6.88;;;;;;;;;;10251973;28;20076;-66
2022/04/17 13:43:16;;;;;;;7.40;6.68;;;;;;;;;;10250354;28;20068;-66
2022/04/17 13:48:16;;;;;;;6.05;5.45;;;;;;;;;;10257583;28;20075;-65
2022/04/17 13:53:14;;;;;;;10.23;6.72;;;;;;;;;;10262930;28;20077;-66
2022/04/17 13:58:12;;;;;;;10.52;8.73;;;;;;;;;;10257772;28;20478;-65
2022/04/17 14:03:10;;;;;;;6.30;5.55;;;;;;;;;;10251553;28;20554;-64
2022/04/17 14:08:10;;;;;;;7.75;6.78;;;;;;;;;;10253868;28;20065;-65
2022/04/17 14:13:13;;;;;;;11.15;9.15;;;;;;;;;;10253098;28;20486;-65
2022/04/17 14:18:11;;;;;;;13.57;12.18;;;;;;;;;;10261071;28;20259;-65
2022/04/17 14:23:11;;;;;;;10.75;8.85;;;;;;;;;;10257861;28;20151;-66
2022/04/17 14:28:09;;;;;;;15.55;12.32;;;;;;;;;;10259150;28;20446;-66
2022/04/17 14:33:07;;;;;;;10.02;8.40;;;;;;;;;;10260188;28;20069;-65
2022/04/17 14:38:06;;;;;;;19.80;16.75;;;;;;;;;;10255044;28;20076;-65
2022/04/17 14:43:06;;;;;;;12.60;9.98;;;;;;;;;;10247405;28;20088;-65
2022/04/17 14:48:04;;;;;;;13.63;10.35;;;;;;;;;;10247062;28;20068;-65
2022/04/17 14:53:03;;;;;;;11.93;10.65;;;;;;;;;;10257219;28;20471;-66
2022/04/17 14:58:01;;;;;;;17.65;13.88;;;;;;;;;;10254574;28;20083;-65
2022/04/17 15:03:02;;;;;;;14.68;10.68;;;;;;;;;;10250667;28;20061;-65
2022/04/17 15:08:01;;;;;;;21.00;14.57;;;;;;;;;;10244267;28;20519;-64
2022/04/17 15:13:00;;;;;;;12.50;11.30;;;;;;;;;;10257233;28;20059;-63
2022/04/17 15:17:58;;;;;;;12.20;10.90;;;;;;;;;;10262664;28;20049;-64
2022/04/17 15:22:58;;;;;;;8.50;7.70;;;;;;;;;;10255610;28;20476;-65
2022/04/17 15:27:56;;;;;;;6.40;5.80;;;;;;;;;;10264882;28;20079;-65
2022/04/17 15:32:54;;;;;;;11.50;8.70;;;;;;;;;;10260339;28;20336;-66
2022/04/17 15:37:54;;;;;;;9.68;7.45;;;;;;;;;;10260659;28;20060;-66
2022/04/17 15:42:54;;;;;;;24.33;11.73;;;;;;;;;;10253334;28;20076;-66
2022/04/17 15:48:00;;;;;;;8.32;6.60;;;;;;;;;;10261166;28;20528;-65
2022/04/17 15:53:04;;;;;;;10.13;9.02;;;;;;;;;;10254962;28;20612;-64
2022/04/17 15:58:04;;;;;;;12.75;9.50;;;;;;;;;;10252731;28;20075;-65
2022/04/17 16:03:03;;;;;;;13.68;10.38;;;;;;;;;;10253259;28;20580;-64
2022/04/17 16:08:01;;;;;;;20.92;14.23;;;;;;;;;;10257439;28;20075;-66
2022/04/17 16:13:01;;;;;;;20.25;11.43;;;;;;;;;;10258636;28;20660;-64
2022/04/17 16:18:01;;;;;;;10.27;9.23;;;;;;;;;;10255953;28;20067;-65
2022/04/17 16:23:03;;;;;;;13.23;11.68;;;;;;;;;;10255592;28;20510;-66
2022/04/17 16:28:01;;;;;;;13.48;11.38;;;;;;;;;;10253774;28;20068;-65
2022/04/17 16:33:01;;;;;;;13.52;8.85;;;;;;;;;;10253025;28;20064;-65
2022/04/17 16:37:59;;;;;;;12.02;10.73;;;;;;;;;;10256602;28;20159;-65
2022/04/17 16:43:00;;;;;;;8.02;7.22;;;;;;;;;;10254070;28;20073;-65
2022/04/17 16:47:58;;;;;;;8.15;7.30;;;;;;;;;;10255610;28;20077;-65
2022/04/17 16:53:04;;;;;;;12.60;9.95;;;;;;;;;;10257223;28;20080;-64
2022/04/17 17:03:18;;;;;;;17.10;13.38;;;;;;;;;;10254840;28;20068;-65
2022/04/17 17:08:17;;;;;;;22.92;15.13;;;;;;;;;;10260719;28;20143;-65
2022/04/17 17:13:16;;;;;;;27.05;19.60;;;;;;;;;;10262509;28;20076;-65
2022/04/17 17:18:14;;;;;;;15.30;12.00;;;;;;;;;;10257160;28;20068;-65
2022/04/17 17:23:13;;;;;;;9.73;8.73;;;;;;;;;;10254404;28;20067;-65
2022/04/17 17:28:12;;;;;;;27.48;20.60;;;;;;;;;;10255721;28;20053;-65
2022/04/17 17:33:11;;;;;;;12.27;8.27;;;;;;;;;;10256825;28;20069;-64
2022/04/17 17:38:09;;;;;;;21.17;16.88;;;;;;;;;;10254793;28;20077;-65
2022/04/17 17:43:07;;;;;;;22.55;15.35;;;;;;;;;;10255176;28;20103;-65
2022/04/17 17:48:07;;;;;;;8.55;7.78;;;;;;;;;;10251598;28;20064;-65
2022/04/17 17:53:06;;;;;;;24.83;17.63;;;;;;;;;;10254034;28;20079;-65
2022/04/17 17:58:07;;;;;;;38.90;24.23;;;;;;;;;;10244949;28;20509;-65
2022/04/17 18:03:06;;;;;;;93.20;51.63;;;;;;;;;;10250034;28;20083;-65
2022/04/17 18:18:40;;;;;;;12.60;11.27;;;;;;;;;;10258161;28;20076;-65
2022/04/17 18:23:38;;;;;;;11.13;9.88;;;;;;;;;;10256588;28;20095;-65
2022/04/17 18:28:36;;;;;;;13.85;11.40;;;;;;;;;;10253405;28;20068;-65
2022/04/17 18:33:35;;;;;;;15.95;14.02;;;;;;;;;;10250989;28;20311;-65
2022/04/17 18:38:35;;;;;;;10.93;9.80;;;;;;;;;;10246551;28;20065;-65
2022/04/17 18:43:33;;;;;;;11.52;9.63;;;;;;;;;;10248637;28;20088;-65
2022/04/17 18:48:31;;;;;;;17.20;13.50;;;;;;;;;;10259192;28;20075;-66
2022/04/17 18:53:29;;;;;;;13.73;11.50;;;;;;;;;;10252639;28;20076;-65
2022/04/17 18:58:29;;;;;;;14.63;12.27;;;;;;;;;;10262449;28;20529;-66
2022/04/17 19:03:28;;;;;;;17.33;13.55;;;;;;;;;;10263571;28;20455;-65
2022/04/17 19:08:29;;;;;;;17.92;12.43;;;;;;;;;;10258978;28;20076;-66
2022/04/17 19:18:44;;;;;;;14.13;11.18;;;;;;;;;;10256842;28;20080;-62
2022/04/17 19:23:43;;;;;;;11.75;10.55;;;;;;;;;;10263680;28;20077;-65
2022/04/17 19:28:42;;;;;;;11.10;9.88;;;;;;;;;;10255153;28;20073;-64
2022/04/17 19:38:56;;;;;;;33.92;23.38;;;;;;;;;;10260956;28;20528;-66
2022/04/17 19:43:56;;;;;;;21.02;15.57;;;;;;;;;;10253731;28;20073;-65
2022/04/17 19:48:54;;;;;;;19.65;16.30;;;;;;;;;;10249073;28;20491;-65
2022/04/17 19:53:52;;;;;;;20.98;18.75;;;;;;;;;;10247690;28;20079;-66
2022/04/17 19:58:51;;;;;;;51.95;28.02;;;;;;;;;;10253707;28;20071;-66
2022/04/17 20:03:50;;;;;;;60.45;31.90;;;;;;;;;;10259279;28;20447;-65
2022/04/17 20:08:49;;;;;;;17.08;12.20;;;;;;;;;;10258211;28;20519;-66
2022/04/17 20:13:47;;;;;;;21.23;14.32;;;;;;;;;;10257778;28;20859;-66
2022/04/17 20:18:45;;;;;;;32.08;17.80;;;;;;;;;;10259872;28;20456;-65
2022/04/17 20:23:45;;;;;;;48.03;23.77;;;;;;;;;;10254512;28;20076;-65
2022/04/17 20:28:43;;;;;;;44.50;20.60;;;;;;;;;;10254138;28;20582;-65
2022/04/17 20:33:42;;;;;;;29.23;16.25;;;;;;;;;;10249905;28;20075;-65
2022/04/17 20:38:40;;;;;;;40.50;21.75;;;;;;;;;;10256948;28;20112;-65
2022/04/17 20:54:11;;;;;;;15.02;10.70;;;;;;;;;;10251361;28;20481;-65
2022/04/17 20:59:11;;;;;;;25.90;18.20;;;;;;;;;;10250827;28;20454;-65
2022/04/17 21:04:10;;;;;;;11.45;9.88;;;;;;;;;;10258394;28;20080;-66
2022/04/17 21:09:08;;;;;;;10.70;8.57;;;;;;;;;;10262052;28;20080;-66
2022/04/17 21:14:06;;;;;;;9.10;8.18;;;;;;;;;;10255611;28;20076;-65
2022/04/17 21:19:06;;;;;;;9.32;7.53;;;;;;;;;;10246233;28;20512;-65
2022/04/17 21:24:05;;;;;;;9.85;8.27;;;;;;;;;;10248338;28;20485;-65
2022/04/17 21:29:04;;;;;;;8.73;7.82;;;;;;;;;;10245410;28;20509;-65
2022/04/17 21:34:03;;;;;;;16.85;9.02;;;;;;;;;;10243963;28;20067;-65
2022/04/17 21:39:03;;;;;;;13.40;7.82;;;;;;;;;;10244490;28;20486;-65
2022/04/17 21:44:02;;;;;;;7.30;6.60;;;;;;;;;;10242228;28;20077;-65
2022/04/17 21:49:00;;;;;;;7.50;6.80;;;;;;;;;;10243665;28;20124;-65
2022/04/17 21:53:59;;;;;;;6.97;6.32;;;;;;;;;;10246602;28;20111;-66
2022/04/17 21:58:59;;;;;;;5.93;5.28;;;;;;;;;;10251645;28;20502;-65
2022/04/17 22:09:17;;;;;;;7.05;6.35;;;;;;;;;;10250861;28;20481;-65
2022/04/17 22:14:17;;;;;;;7.38;5.55;;;;;;;;;;10253910;28;20064;-64
2022/04/17 22:19:15;;;;;;;7.28;5.95;;;;;;;;;;10261113;28;20478;-64
2022/04/17 22:24:16;;;;;;;9.13;6.03;;;;;;;;;;10268280;28;20080;-65
2022/04/17 22:29:14;;;;;;;7.95;5.93;;;;;;;;;;10260922;28;20095;-65
2022/04/17 22:34:14;;;;;;;6.13;5.38;;;;;;;;;;10259358;28;20071;-65
2022/04/17 22:39:12;;;;;;;7.70;5.30;;;;;;;;;;10258365;28;20099;-65
2022/04/17 22:44:11;;;;;;;5.25;4.75;;;;;;;;;;10267926;28;20084;-65
2022/04/17 22:49:10;;;;;;;5.20;4.70;;;;;;;;;;10262467;28;20068;-65
2022/04/17 22:54:09;;;;;;;4.65;4.25;;;;;;;;;;10258499;28;20056;-65
2022/04/17 22:59:08;;;;;;;8.23;5.35;;;;;;;;;;10263347;28;20083;-65
2022/04/17 23:04:06;;;;;;;4.88;4.38;;;;;;;;;;10264662;28;20057;-65
2022/04/17 23:09:04;;;;;;;4.30;3.90;;;;;;;;;;10257141;28;20065;-65
2022/04/17 23:14:05;;;;;;;5.03;4.18;;;;;;;;;;10255026;28;20068;-65
2022/04/17 23:19:03;;;;;;;4.63;3.75;;;;;;;;;;10256227;28;20111;-65
2022/04/17 23:24:01;;;;;;;4.60;4.05;;;;;;;;;;10259921;28;20076;-65
2022/04/17 23:29:00;;;;;;;3.58;3.22;;;;;;;;;;10254005;28;20065;-65
2022/04/17 23:33:59;;;;;;;7.45;4.18;;;;;;;;;;10252725;28;20072;-65
2022/04/17 23:38:58;;;;;;;4.30;3.88;;;;;;;;;;10257890;28;20365;-66
2022/04/17 23:43:56;;;;;;;4.47;3.97;;;;;;;;;;10260420;28;20514;-65
2022/04/17 23:48:54;;;;;;;3.90;3.60;;;;;;;;;;10261478;28;20075;-65
2022/04/17 23:53:54;;;;;;;8.23;4.30;;;;;;;;;;10258087;28;20550;-65
2022/04/17 23:58:52;;;;;;;4.38;4.00;;;;;;;;;;10256549;28;20076;-64
